createdAt,value
2024-02-08T00:01:25.976Z,3.05
2024-02-08T00:04:12.146Z,3.05
2024-02-08T00:06:57.873Z,3.03
2024-02-08T00:09:43.210Z,3.04
2024-02-08T00:12:28.833Z,3.06
2024-02-08T00:15:17.213Z,3.05
2024-02-08T00:18:03.169Z,3.05
2024-02-08T00:20:49.043Z,3.04
2024-02-08T00:23:38.262Z,3.04
2024-02-08T00:26:23.661Z,3.04
2024-02-08T00:29:09.967Z,3.02
2024-02-08T00:31:56.052Z,3.02
2024-02-08T00:34:41.953Z,3.00
2024-02-08T00:37:27.409Z,2.99
2024-02-08T00:40:13.089Z,3.00
2024-02-08T00:42:58.896Z,2.98
2024-02-08T00:45:44.581Z,2.98
2024-02-08T00:48:30.360Z,2.98
2024-02-08T00:51:16.305Z,2.98
2024-02-08T00:54:02.946Z,2.99
2024-02-08T00:56:48.396Z,2.96
2024-02-08T00:59:33.838Z,2.97
2024-02-08T01:02:19.493Z,2.96
2024-02-08T01:05:05.349Z,2.95
2024-02-08T01:07:50.970Z,2.96
2024-02-08T01:10:36.591Z,2.93
2024-02-08T01:13:23.174Z,2.92
2024-02-08T01:16:12.779Z,2.91
2024-02-08T01:18:58.854Z,2.92
2024-02-08T01:21:45.399Z,2.91
2024-02-08T01:24:30.726Z,2.91
2024-02-08T01:27:22.141Z,2.91
2024-02-08T01:30:09.210Z,2.91
2024-02-08T01:32:56.404Z,2.93
2024-02-08T01:35:41.814Z,2.92
2024-02-08T01:38:28.696Z,2.92
2024-02-08T01:41:15.014Z,2.93
2024-02-08T01:44:05.151Z,2.93
2024-02-08T01:46:51.660Z,2.95
2024-02-08T01:49:37.808Z,2.95
2024-02-08T01:52:23.757Z,2.93
2024-02-08T01:55:10.155Z,2.93
2024-02-08T01:57:55.735Z,2.93
2024-02-08T02:00:41.592Z,2.89
2024-02-08T02:03:33.163Z,2.87
2024-02-08T02:06:19.068Z,2.87
2024-02-08T02:09:04.880Z,2.85
2024-02-08T02:11:56.674Z,2.82
2024-02-08T02:14:42.794Z,2.83
2024-02-08T02:17:28.543Z,2.83
2024-02-08T02:20:14.946Z,2.82
2024-02-08T02:23:01.877Z,2.83
2024-02-08T02:25:52.942Z,2.83
2024-02-08T02:28:38.667Z,2.84
2024-02-08T02:31:25.529Z,2.84
2024-02-08T02:34:11.447Z,2.85
2024-02-08T02:36:59.820Z,2.88
2024-02-08T02:39:46.684Z,2.88
2024-02-08T02:42:31.994Z,2.90
2024-02-08T02:45:23.222Z,2.88
2024-02-08T02:48:09.419Z,2.89
2024-02-08T02:50:55.285Z,2.91
2024-02-08T02:53:41.307Z,2.91
2024-02-08T02:56:29.306Z,2.93
2024-02-08T02:59:18.698Z,2.95
2024-02-08T03:02:04.314Z,2.94
2024-02-08T03:04:50.441Z,2.94
2024-02-08T03:07:36.390Z,2.94
2024-02-08T03:10:23.464Z,2.99
2024-02-08T03:13:09.425Z,3.04
2024-02-08T03:15:56.120Z,3.27
2024-02-08T03:18:47.435Z,3.79
2024-02-08T03:21:41.461Z,4.32
2024-02-08T03:24:33.709Z,4.77
2024-02-08T03:27:22.983Z,5.12
2024-02-08T03:30:20.569Z,5.39
2024-02-08T03:33:16.681Z,5.62
2024-02-08T03:36:08.186Z,5.79
2024-02-08T03:38:54.327Z,5.94
2024-02-08T03:41:40.203Z,6.06
2024-02-08T03:44:27.251Z,6.15
2024-02-08T03:47:13.793Z,6.23
2024-02-08T03:50:01.142Z,6.30
2024-02-08T03:52:46.837Z,6.36
2024-02-08T03:55:32.148Z,6.39
2024-02-08T03:58:19.280Z,6.45
2024-02-08T04:01:05.243Z,6.48
2024-02-08T04:04:13.174Z,6.51
2024-02-08T04:07:15.878Z,6.55
2024-02-08T04:10:21.165Z,6.58
2024-02-08T04:13:25.690Z,6.59
2024-02-08T04:16:33.322Z,6.61
2024-02-08T04:19:37.633Z,6.65
2024-02-08T04:22:42.014Z,6.65
2024-02-08T04:25:46.285Z,6.66
2024-02-08T04:28:50.790Z,6.69
2024-02-08T04:31:54.994Z,6.69
2024-02-08T04:35:02.323Z,6.68
2024-02-08T04:38:06.730Z,6.72
2024-02-08T04:41:11.032Z,6.73
2024-02-08T04:44:15.071Z,6.75
2024-02-08T04:47:19.280Z,6.78
2024-02-08T04:50:24.057Z,6.82
2024-02-08T04:53:28.993Z,6.85
2024-02-08T04:56:19.796Z,6.88
2024-02-08T04:59:20.771Z,6.91
2024-02-08T05:02:09.046Z,6.93
2024-02-08T05:04:54.962Z,6.94
2024-02-08T05:07:41.866Z,6.95
2024-02-08T05:10:29.547Z,6.99
2024-02-08T05:13:15.771Z,6.99
2024-02-08T05:16:01.327Z,7.02
2024-02-08T05:18:49.282Z,7.04
2024-02-08T05:21:42.485Z,7.05
2024-02-08T05:24:29.613Z,7.09
2024-02-08T05:27:15.495Z,7.10
2024-02-08T05:30:00.843Z,7.13
2024-02-08T05:32:46.992Z,7.14
2024-02-08T05:35:34.650Z,7.15
2024-02-08T05:38:23.201Z,7.18
2024-02-08T05:41:10.740Z,7.20
2024-02-08T05:43:56.015Z,7.20
2024-02-08T05:46:41.641Z,7.22
2024-02-08T05:49:31.794Z,7.24
2024-02-08T05:52:17.773Z,7.27
2024-02-08T05:55:04.626Z,7.28
2024-02-08T05:57:50.157Z,7.29
2024-02-08T06:00:47.153Z,7.30
2024-02-08T06:03:39.237Z,7.32
2024-02-08T06:06:35.243Z,7.34
2024-02-08T06:09:56.280Z,7.37
2024-02-08T06:12:45.971Z,7.38
2024-02-08T06:15:35.181Z,7.42
2024-02-08T06:18:21.795Z,7.43
2024-02-08T06:21:16.339Z,7.44
2024-02-08T06:24:21.760Z,7.43
2024-02-08T06:27:14.799Z,7.45
2024-02-08T06:30:09.197Z,7.47
2024-02-08T06:33:18.176Z,7.49
2024-02-08T06:36:08.917Z,7.51
2024-02-08T06:38:54.926Z,7.52
2024-02-08T06:41:54.491Z,7.54
2024-02-08T06:44:40.429Z,7.57
2024-02-08T06:47:51.973Z,7.61
2024-02-08T06:50:56.203Z,7.63
2024-02-08T06:54:01.601Z,7.67
2024-02-08T06:57:05.832Z,7.68
2024-02-08T07:00:09.910Z,7.68
2024-02-08T07:03:14.452Z,7.70
2024-02-08T07:06:18.836Z,7.71
2024-02-08T07:09:22.969Z,7.73
2024-02-08T07:12:37.613Z,7.73
2024-02-08T07:15:42.219Z,7.75
2024-02-08T07:18:52.069Z,7.80
2024-02-08T07:21:59.382Z,7.84
2024-02-08T07:25:04.264Z,7.87
2024-02-08T07:28:08.349Z,7.91
2024-02-08T07:31:12.953Z,7.94
2024-02-08T07:34:16.999Z,7.97
2024-02-08T07:37:26.490Z,7.99
2024-02-08T07:40:25.450Z,8.03
2024-02-08T07:43:17.795Z,8.05
2024-02-08T07:46:06.613Z,8.07
2024-02-08T07:48:59.987Z,8.08
2024-02-08T07:51:51.595Z,8.10
2024-02-08T07:54:40.680Z,8.11
2024-02-08T07:57:27.585Z,8.13
2024-02-08T08:00:33.465Z,8.15
2024-02-08T08:03:25.095Z,8.17
2024-02-08T08:06:11.422Z,8.20
2024-02-08T08:08:59.747Z,8.21
2024-02-08T08:11:53.988Z,8.22
2024-02-08T08:14:40.789Z,8.23
2024-02-08T08:17:26.641Z,8.25
2024-02-08T08:20:38.390Z,8.27
2024-02-08T08:23:28.388Z,8.29
2024-02-08T08:26:25.861Z,8.30
2024-02-08T08:29:18.556Z,8.33
2024-02-08T08:32:24.734Z,8.37
2024-02-08T08:35:29.107Z,8.38
2024-02-08T08:38:35.924Z,8.39
2024-02-08T08:41:25.724Z,8.42
2024-02-08T08:44:11.580Z,8.43
2024-02-08T08:47:02.279Z,8.47
2024-02-08T08:49:52.431Z,8.51
2024-02-08T08:52:49.179Z,8.56
2024-02-08T08:55:40.856Z,8.59
2024-02-08T08:58:29.443Z,8.62
2024-02-08T09:01:23.820Z,8.64
2024-02-08T09:04:24.235Z,8.67
2024-02-08T09:07:13.514Z,8.71
2024-02-08T09:10:03.072Z,8.73
2024-02-08T09:13:01.359Z,8.74
2024-02-08T09:15:57.373Z,8.75
2024-02-08T09:19:03.341Z,8.79
2024-02-08T09:21:51.598Z,8.83
2024-02-08T09:24:43.635Z,8.89
2024-02-08T09:27:35.549Z,8.92
2024-02-08T09:30:40.644Z,8.93
2024-02-08T09:33:32.677Z,8.92
2024-02-08T09:36:18.724Z,8.91
2024-02-08T09:39:16.194Z,8.94
2024-02-08T09:42:09.105Z,8.99
2024-02-08T09:45:17.558Z,9.06
2024-02-08T09:48:07.770Z,9.09
2024-02-08T09:51:12.809Z,9.12
2024-02-08T09:54:16.573Z,9.14
2024-02-08T09:57:10.361Z,9.15
2024-02-08T10:00:11.956Z,9.19
2024-02-08T10:03:05.359Z,9.21
2024-02-08T10:05:58.888Z,9.23
2024-02-08T10:08:56.039Z,9.27
2024-02-08T10:11:46.191Z,9.32
2024-02-08T10:14:34.378Z,9.38
2024-02-08T10:17:26.224Z,9.42
2024-02-08T10:20:14.917Z,9.46
2024-02-08T10:23:32.698Z,9.47
2024-02-08T10:26:21.423Z,9.48
2024-02-08T10:29:08.970Z,9.50
2024-02-08T10:31:55.623Z,9.50
2024-02-08T10:34:44.929Z,9.49
2024-02-08T10:37:48.901Z,9.50
2024-02-08T10:40:40.364Z,9.50
2024-02-08T10:43:27.105Z,9.49
2024-02-08T10:46:18.180Z,9.47
2024-02-08T10:49:10.681Z,9.48
2024-02-08T10:52:02.398Z,9.47
2024-02-08T10:54:53.983Z,9.46
2024-02-08T10:58:01.854Z,9.45
2024-02-08T11:00:49.136Z,9.46
2024-02-08T11:03:37.947Z,9.46
2024-02-08T11:06:35.679Z,9.44
2024-02-08T11:09:20.940Z,9.43
2024-02-08T11:12:31.626Z,9.44
2024-02-08T11:15:32.015Z,9.47
2024-02-08T11:18:34.988Z,9.50
2024-02-08T11:21:29.791Z,9.51
2024-02-08T11:24:30.061Z,9.55
2024-02-08T11:27:29.107Z,9.58
2024-02-08T11:30:20.878Z,9.64
2024-02-08T11:33:13.718Z,9.73
2024-02-08T11:36:16.568Z,9.78
2024-02-08T11:39:22.033Z,9.81
2024-02-08T11:42:18.225Z,9.80
2024-02-08T11:45:10.380Z,9.80
2024-02-08T11:47:59.613Z,9.79
2024-02-08T11:50:48.469Z,9.78
2024-02-08T11:53:34.450Z,9.75
2024-02-08T11:56:21.780Z,9.72
2024-02-08T11:59:08.943Z,9.69
2024-02-08T12:01:55.053Z,9.68
2024-02-08T12:04:40.932Z,9.66
2024-02-08T12:07:26.538Z,9.70
2024-02-08T12:10:16.881Z,9.70
2024-02-08T12:13:03.016Z,9.76
2024-02-08T12:15:58.011Z,9.79
2024-02-08T12:18:44.190Z,9.81
2024-02-08T12:21:29.554Z,9.84
2024-02-08T12:24:17.836Z,9.84
2024-02-08T12:27:22.837Z,9.88
2024-02-08T12:30:09.542Z,9.95
2024-02-08T12:32:56.503Z,9.99
2024-02-08T12:35:42.899Z,10.03
2024-02-08T12:38:28.936Z,10.07
2024-02-08T12:41:15.679Z,10.06
2024-02-08T12:44:01.479Z,10.09
2024-02-08T12:46:50.980Z,10.07
2024-02-08T12:49:38.008Z,10.07
2024-02-08T12:52:24.269Z,10.09
2024-02-08T12:55:10.517Z,10.08
2024-02-08T12:58:03.950Z,10.09
2024-02-08T13:01:06.337Z,10.11
2024-02-08T13:03:55.781Z,10.12
2024-02-08T13:06:43.251Z,10.14
2024-02-08T13:09:31.408Z,10.12
2024-02-08T13:12:21.278Z,10.12
2024-02-08T13:15:21.586Z,10.12
2024-02-08T13:18:11.205Z,10.15
2024-02-08T13:20:58.471Z,10.15
2024-02-08T13:23:44.175Z,10.17
2024-02-08T13:26:35.940Z,10.19
2024-02-08T13:29:27.517Z,10.22
2024-02-08T13:32:13.070Z,10.23
2024-02-08T13:35:00.292Z,10.24
2024-02-08T13:37:51.806Z,10.25
2024-02-08T13:40:44.459Z,10.29
2024-02-08T13:43:32.106Z,10.33
2024-02-08T13:46:17.924Z,10.37
2024-02-08T13:49:07.735Z,10.42
2024-02-08T13:51:53.764Z,10.47
2024-02-08T13:54:39.993Z,10.48
2024-02-08T13:57:25.701Z,10.51
2024-02-08T14:00:11.478Z,10.55
2024-02-08T14:03:02.231Z,10.55
2024-02-08T14:05:52.679Z,10.56
2024-02-08T14:08:44.424Z,10.56
2024-02-08T14:11:39.592Z,10.62
2024-02-08T14:14:41.672Z,10.64
2024-02-08T14:17:35.806Z,10.66
2024-02-08T14:20:44.185Z,10.64
2024-02-08T14:23:40.257Z,10.63
2024-02-08T14:26:35.061Z,10.63
2024-02-08T14:29:21.533Z,10.62
2024-02-08T14:32:16.939Z,10.60
2024-02-08T14:35:17.874Z,10.55
2024-02-08T14:38:05.185Z,10.54
2024-02-08T14:40:55.086Z,10.53
2024-02-08T14:43:48.004Z,10.49
2024-02-08T14:46:34.122Z,10.45
2024-02-08T14:49:28.129Z,10.41
2024-02-08T14:52:26.056Z,10.39
2024-02-08T14:55:12.152Z,10.37
2024-02-08T14:58:01.204Z,10.34
2024-02-08T15:00:47.155Z,10.29
2024-02-08T15:03:38.098Z,10.27
2024-02-08T15:06:55.771Z,10.24
2024-02-08T15:09:41.299Z,10.23
2024-02-08T15:12:34.091Z,10.20
2024-02-08T15:15:34.906Z,10.16
2024-02-08T15:18:31.632Z,10.10
2024-02-08T15:21:27.239Z,10.02
2024-02-08T15:24:15.045Z,9.95
2024-02-08T15:27:09.071Z,9.92
2024-02-08T15:30:06.656Z,9.86
2024-02-08T15:32:57.967Z,9.84
2024-02-08T15:35:53.406Z,9.82
2024-02-08T15:38:56.626Z,9.82
2024-02-08T15:41:52.793Z,9.80
2024-02-08T15:44:46.899Z,9.79
2024-02-08T15:47:35.900Z,9.79
2024-02-08T15:50:26.421Z,9.78
2024-02-08T15:53:21.298Z,9.78
2024-02-08T15:56:09.456Z,9.77
2024-02-08T15:59:04.381Z,9.79
2024-02-08T16:01:53.282Z,9.79
2024-02-08T16:04:46.315Z,9.79
2024-02-08T16:07:34.184Z,9.79
2024-02-08T16:10:26.142Z,9.81
2024-02-08T16:13:11.889Z,9.83
2024-02-08T16:15:57.890Z,9.82
2024-02-08T16:18:51.076Z,9.82
2024-02-08T16:21:36.955Z,9.83
2024-02-08T16:24:22.410Z,9.83
2024-02-08T16:27:14.416Z,9.82
2024-02-08T16:30:00.741Z,9.82
2024-02-08T16:32:57.286Z,9.82
2024-02-08T16:35:59.065Z,9.85
2024-02-08T16:38:58.131Z,9.84
2024-02-08T16:41:52.400Z,9.86
2024-02-08T16:44:52.437Z,9.90
2024-02-08T16:47:53.194Z,9.92
2024-02-08T16:50:47.100Z,9.94
2024-02-08T16:53:35.252Z,9.97
2024-02-08T16:56:23.248Z,10.00
2024-02-08T16:59:16.835Z,10.02
2024-02-08T17:02:09.153Z,10.04
2024-02-08T17:05:10.451Z,10.05
2024-02-08T17:08:03.362Z,10.06
2024-02-08T17:10:56.949Z,10.09
2024-02-08T17:13:52.392Z,10.10
2024-02-08T17:16:47.149Z,10.12
2024-02-08T17:19:35.585Z,10.15
2024-02-08T17:22:24.066Z,10.15
2024-02-08T17:25:15.560Z,10.16
2024-02-08T17:28:04.142Z,10.18
2024-02-08T17:31:01.848Z,10.19
2024-02-08T17:33:51.304Z,10.22
2024-02-08T17:36:45.190Z,10.24
2024-02-08T17:39:41.769Z,10.28
2024-02-08T17:42:32.002Z,10.28
2024-02-08T17:45:19.308Z,10.28
2024-02-08T17:48:13.115Z,10.30
2024-02-08T17:51:08.387Z,10.32
2024-02-08T17:53:54.842Z,10.33
2024-02-08T17:56:43.513Z,10.36
2024-02-08T17:59:30.698Z,10.36
2024-02-08T18:02:22.704Z,10.40
2024-02-08T18:05:16.077Z,10.42
2024-02-08T18:08:01.974Z,10.46
2024-02-08T18:10:48.867Z,10.48
2024-02-08T18:13:34.684Z,10.49
2024-02-08T18:16:20.530Z,10.46
2024-02-08T18:19:07.279Z,10.49
2024-02-08T18:21:53.054Z,10.53
2024-02-08T18:24:38.522Z,10.53
2024-02-08T18:27:29.255Z,10.50
2024-02-08T18:30:19.847Z,10.50
2024-02-08T18:33:06.495Z,10.51
2024-02-08T18:35:54.543Z,10.49
2024-02-08T18:38:40.993Z,10.48
2024-02-08T18:41:27.185Z,10.48
2024-02-08T18:44:14.984Z,10.46
2024-02-08T18:47:04.642Z,10.47
2024-02-08T18:49:54.703Z,10.48
2024-02-08T18:55:45.318Z,10.43
2024-02-08T18:58:34.170Z,10.41
2024-02-08T19:01:22.568Z,10.41
2024-02-08T19:04:12.197Z,10.42
2024-02-08T19:06:58.052Z,10.42
2024-02-08T19:09:44.722Z,10.41
2024-02-08T19:12:30.234Z,10.40
2024-02-08T19:15:15.515Z,10.40
2024-02-08T19:18:16.149Z,10.38
2024-02-08T19:21:02.104Z,10.34
2024-02-08T19:23:47.706Z,10.30
2024-02-08T19:26:34.073Z,10.30
2024-02-08T19:29:25.778Z,10.27
2024-02-08T19:32:20.579Z,10.25
2024-02-08T19:35:11.512Z,10.22
2024-02-08T19:37:59.238Z,10.19
2024-02-08T19:40:44.684Z,10.15
2024-02-08T19:43:36.516Z,10.11
2024-02-08T19:46:22.256Z,10.09
2024-02-08T19:49:09.436Z,10.10
2024-02-08T19:52:22.767Z,10.10
2024-02-08T19:55:22.346Z,10.09
2024-02-08T19:58:11.806Z,10.11
2024-02-08T20:01:00.598Z,10.09
2024-02-08T20:03:48.701Z,10.10
2024-02-08T20:06:35.585Z,10.12
2024-02-08T20:09:21.794Z,10.14
2024-02-08T20:12:14.255Z,10.14
2024-02-08T20:14:59.748Z,10.15
2024-02-08T20:17:51.202Z,10.18
2024-02-08T20:20:38.328Z,10.16
2024-02-08T20:23:33.823Z,10.15
2024-02-08T20:26:25.548Z,10.12
2024-02-08T20:29:15.941Z,10.12
2024-02-08T20:32:01.756Z,10.12
2024-02-08T20:34:48.267Z,10.10
2024-02-08T20:37:34.015Z,10.09
2024-02-08T20:40:23.279Z,10.08
2024-02-08T20:43:12.020Z,10.09
2024-02-08T20:46:00.630Z,10.08
2024-02-08T20:48:47.394Z,10.10
2024-02-08T20:51:34.361Z,10.12
2024-02-08T20:54:20.150Z,10.15
2024-02-08T20:57:11.511Z,10.16
2024-02-08T20:59:57.759Z,10.14
2024-02-08T21:02:43.591Z,10.10
2024-02-08T21:05:30.106Z,10.08
2024-02-08T21:08:17.927Z,10.05
2024-02-08T21:11:03.705Z,10.06
2024-02-08T21:13:50.358Z,10.06
2024-02-08T21:16:41.164Z,10.03
2024-02-08T21:19:27.056Z,10.05
2024-02-08T21:22:15.623Z,10.05
2024-02-08T21:25:01.578Z,10.02
2024-02-08T21:27:53.735Z,10.03
2024-02-08T21:30:48.710Z,10.04
2024-02-08T21:33:34.596Z,10.04
2024-02-08T21:36:26.177Z,10.04
2024-02-08T21:39:20.071Z,10.02
2024-02-08T21:42:07.997Z,10.01
2024-02-08T21:44:53.794Z,9.99
2024-02-08T21:47:40.486Z,9.98
2024-02-08T21:50:26.172Z,9.99
2024-02-08T21:53:14.616Z,9.99
2024-02-08T21:56:00.315Z,9.99
2024-02-08T21:58:45.931Z,9.96
2024-02-08T22:01:38.070Z,10.02
